createdAt,value
2018-09-14T00:00:00.605Z,96.51
2018-09-14T00:01:01.006Z,96.70
2018-09-14T00:02:00.602Z,96.32
2018-09-14T00:03:00.595Z,96.08
2018-09-14T00:04:00.592Z,96.80
2018-09-14T00:05:00.591Z,96.70
2018-09-14T00:06:00.585Z,96.84
2018-09-14T00:07:01.222Z,97.47
2018-09-14T00:08:48.911Z,97.37
2018-09-14T00:09:48.909Z,97.32
2018-09-14T00:10:48.906Z,97.42
2018-09-14T00:11:48.949Z,98.37
2018-09-14T00:12:48.899Z,98.66
2018-09-14T00:13:48.896Z,98.37
2018-09-14T00:14:48.894Z,98.75
2018-09-14T00:15:48.890Z,98.66
2018-09-14T00:16:48.888Z,98.18
2018-09-14T00:17:48.884Z,98.94
2018-09-14T00:18:48.881Z,98.85
2018-09-14T00:20:42.220Z,99.13
2018-09-14T00:21:42.216Z,99.90
2018-09-14T00:22:42.211Z,98.75
2018-09-14T00:23:42.210Z,98.56
2018-09-14T00:24:42.206Z,98.37
2018-09-14T00:25:42.206Z,98.56
2018-09-14T00:26:42.200Z,98.56
2018-09-14T00:27:42.200Z,98.94
2018-09-14T00:28:42.194Z,98.85
2018-09-14T00:29:42.195Z,98.47
2018-09-14T00:30:42.188Z,98.47
2018-09-14T00:31:42.184Z,97.99
2018-09-14T00:32:42.183Z,97.80
2018-09-14T00:33:42.179Z,97.32
2018-09-14T00:34:42.173Z,98.18
2018-09-14T00:35:42.170Z,98.27
2018-09-14T00:36:42.167Z,98.75
2018-09-14T00:37:42.166Z,99.52
2018-09-14T00:38:42.164Z,99.90
2018-09-14T00:39:42.157Z,99.52
2018-09-14T00:40:42.155Z,99.42
2018-09-14T00:41:42.151Z,98.85
2018-09-14T00:42:42.147Z,97.89
2018-09-14T00:43:42.145Z,98.94
2018-09-14T00:44:42.146Z,99.04
2018-09-14T00:45:42.138Z,98.75
2018-09-14T00:46:42.136Z,99.61
2018-09-14T00:47:42.134Z,99.56
2018-09-14T00:48:42.138Z,99.99
2018-09-14T00:49:42.125Z,99.99
2018-09-14T00:50:42.124Z,99.85
2018-09-14T00:51:42.119Z,99.99
2018-09-14T00:52:42.115Z,99.99
2018-09-14T00:53:42.114Z,99.99
2018-09-14T00:54:42.109Z,99.99
2018-09-14T00:55:42.107Z,99.99
2018-09-14T00:56:42.101Z,99.99
2018-09-14T00:57:42.100Z,99.99
2018-09-14T00:58:42.095Z,99.99
2018-09-14T00:59:42.093Z,99.99
2018-09-14T01:00:42.089Z,99.99
2018-09-14T01:01:42.085Z,99.99
2018-09-14T01:02:42.088Z,99.99
2018-09-14T01:03:42.079Z,99.99
2018-09-14T01:04:42.076Z,99.99
2018-09-14T01:05:42.072Z,99.99
2018-09-14T01:06:42.069Z,99.99
2018-09-14T01:07:42.065Z,99.99
2018-09-14T01:08:42.063Z,99.99
2018-09-14T01:09:42.060Z,99.99
2018-09-14T01:10:42.057Z,99.99
2018-09-14T01:11:42.051Z,99.99
2018-09-14T01:12:42.047Z,99.99
2018-09-14T01:13:42.045Z,99.99
2018-09-14T01:14:42.041Z,99.99
2018-09-14T01:15:42.038Z,99.99
2018-09-14T01:16:42.035Z,99.99
2018-09-14T01:17:42.030Z,99.99
2018-09-14T01:18:42.029Z,99.99
2018-09-14T01:19:42.024Z,99.99
2018-09-14T01:20:42.026Z,99.99
2018-09-14T01:21:42.017Z,99.99
2018-09-14T01:22:42.012Z,99.99
2018-09-14T01:23:42.011Z,99.99
2018-09-14T01:24:42.005Z,99.99
2018-09-14T01:25:42.002Z,99.99
2018-09-14T01:26:41.999Z,99.99
2018-09-14T01:27:41.995Z,99.99
2018-09-14T01:28:41.991Z,99.99
2018-09-14T01:29:41.992Z,99.99
2018-09-14T01:30:41.987Z,99.99
2018-09-14T01:31:41.980Z,99.99
2018-09-14T01:32:41.979Z,99.99
2018-09-14T01:33:41.972Z,99.99
2018-09-14T01:34:41.970Z,99.99
2018-09-14T01:35:41.967Z,99.99
2018-09-14T01:36:41.963Z,99.99
2018-09-14T01:37:41.960Z,99.99
2018-09-14T01:38:41.955Z,99.99
2018-09-14T01:39:41.951Z,99.99
2018-09-14T01:40:41.949Z,99.99
2018-09-14T01:41:41.945Z,99.99
2018-09-14T01:42:41.941Z,99.99
2018-09-14T01:43:41.939Z,99.99
2018-09-14T01:44:41.934Z,99.99
2018-09-14T01:45:41.930Z,99.99
2018-09-14T01:46:41.926Z,99.99
2018-09-14T01:47:41.924Z,99.99
2018-09-14T01:48:41.919Z,99.99
2018-09-14T01:49:41.925Z,99.99
2018-09-14T01:50:41.910Z,99.99
2018-09-14T01:51:41.908Z,99.99
2018-09-14T01:52:41.905Z,99.99
2018-09-14T01:53:41.901Z,99.99
2018-09-14T01:54:41.898Z,99.99
2018-09-14T01:55:41.895Z,99.99
2018-09-14T01:56:41.890Z,99.99
2018-09-14T01:57:41.891Z,99.99
2018-09-14T01:58:41.883Z,99.99
2018-09-14T01:59:41.878Z,99.99
2018-09-14T02:00:41.875Z,99.99
2018-09-14T02:01:41.873Z,99.99
2018-09-14T02:02:41.867Z,99.99
2018-09-14T02:03:41.865Z,99.99
2018-09-14T02:04:41.861Z,99.99
2018-09-14T02:05:41.857Z,99.99
2018-09-14T02:06:41.852Z,99.99
2018-09-14T02:07:41.848Z,99.99
2018-09-14T02:08:41.846Z,99.99
2018-09-14T02:09:41.844Z,99.99
2018-09-14T02:10:41.838Z,99.99
2018-09-14T02:11:41.833Z,99.99
2018-09-14T02:12:41.830Z,99.99
2018-09-14T02:13:41.826Z,99.99
2018-09-14T02:14:41.823Z,99.99
2018-09-14T02:15:41.817Z,99.99
2018-09-14T02:16:41.815Z,99.99
2018-09-14T02:17:41.811Z,99.99
2018-09-14T02:18:41.807Z,99.99
2018-09-14T02:19:41.803Z,99.99
2018-09-14T02:20:41.799Z,99.99
2018-09-14T02:21:41.795Z,99.99
2018-09-14T02:22:41.792Z,99.99
2018-09-14T02:23:41.787Z,99.99
2018-09-14T02:24:41.782Z,99.99
2018-09-14T02:25:41.825Z,99.99
2018-09-14T02:26:41.775Z,99.99
2018-09-14T02:27:41.772Z,99.99
2018-09-14T02:28:41.769Z,99.99
2018-09-14T02:29:41.764Z,99.99
2018-09-14T02:30:41.758Z,99.99
2018-09-14T02:31:41.757Z,99.99
2018-09-14T02:32:41.751Z,99.99
2018-09-14T02:33:41.749Z,99.99
2018-09-14T02:34:41.744Z,99.99
2018-09-14T02:35:41.739Z,99.99
2018-09-14T02:36:41.740Z,99.99
2018-09-14T02:37:41.733Z,99.99
2018-09-14T02:38:41.725Z,99.99
2018-09-14T02:39:41.726Z,99.99
2018-09-14T02:40:41.720Z,99.99
2018-09-14T02:41:41.717Z,99.99
2018-09-14T02:42:41.713Z,99.99
2018-09-14T02:43:41.707Z,99.99
2018-09-14T02:44:41.704Z,99.99
2018-09-14T02:45:41.701Z,99.99
2018-09-14T02:46:41.695Z,99.99
2018-09-14T02:47:41.692Z,99.99
2018-09-14T02:48:41.690Z,99.99
2018-09-14T02:49:41.683Z,99.99
2018-09-14T02:50:41.679Z,99.99
2018-09-14T02:51:41.675Z,99.99
2018-09-14T02:52:41.673Z,99.99
2018-09-14T02:53:41.669Z,99.99
2018-09-14T02:54:41.663Z,99.99
2018-09-14T02:55:41.662Z,99.99
2018-09-14T02:56:41.656Z,99.99
2018-09-14T02:57:41.652Z,99.99
2018-09-14T02:58:41.647Z,99.99
2018-09-14T02:59:41.645Z,99.99
2018-09-14T03:00:41.646Z,99.99
2018-09-14T03:01:41.635Z,99.99
2018-09-14T03:02:41.639Z,99.99
2018-09-14T03:03:41.627Z,99.99
2018-09-14T03:04:41.627Z,99.99
2018-09-14T03:05:41.620Z,99.99
2018-09-14T03:06:41.614Z,99.99
2018-09-14T03:07:41.611Z,99.99
2018-09-14T03:08:41.606Z,99.99
2018-09-14T03:09:41.601Z,99.99
2018-09-14T03:10:41.597Z,99.99
2018-09-14T03:11:41.594Z,99.99
2018-09-14T03:12:41.591Z,99.99
2018-09-14T03:13:41.586Z,99.99
2018-09-14T03:14:41.581Z,99.99
2018-09-14T03:15:41.576Z,99.99
2018-09-14T03:16:41.574Z,99.99
2018-09-14T03:17:41.569Z,99.99
2018-09-14T03:18:41.567Z,99.99
2018-09-14T03:19:41.563Z,99.99
2018-09-14T03:20:41.556Z,99.99
2018-09-14T03:21:41.553Z,99.99
2018-09-14T03:22:41.547Z,99.99
2018-09-14T03:23:41.544Z,99.99
2018-09-14T03:24:41.539Z,99.99
2018-09-14T03:25:41.536Z,99.99
2018-09-14T03:26:41.530Z,99.99
2018-09-14T03:27:41.527Z,99.99
2018-09-14T03:28:41.522Z,99.99
2018-09-14T03:29:41.516Z,99.99
2018-09-14T03:30:41.515Z,99.99
2018-09-14T03:31:41.508Z,99.99
2018-09-14T03:32:41.506Z,99.99
2018-09-14T03:33:41.502Z,99.99
2018-09-14T03:34:41.496Z,99.99
2018-09-14T03:35:41.493Z,99.99
2018-09-14T03:36:41.487Z,99.99
2018-09-14T03:37:41.483Z,99.99
2018-09-14T03:38:41.479Z,99.99
2018-09-14T03:39:41.474Z,99.99
2018-09-14T03:40:41.470Z,99.99
2018-09-14T03:41:41.466Z,99.99
2018-09-14T03:42:41.460Z,99.99
2018-09-14T03:43:41.458Z,99.99
2018-09-14T03:44:41.454Z,99.99
2018-09-14T03:45:41.449Z,99.99
2018-09-14T03:46:41.443Z,99.99
2018-09-14T03:47:41.440Z,99.99
2018-09-14T03:48:41.434Z,99.99
2018-09-14T03:49:41.430Z,99.99
2018-09-14T03:50:41.430Z,99.99
2018-09-14T03:51:41.420Z,99.99
2018-09-14T03:52:41.417Z,99.99
2018-09-14T03:53:41.413Z,99.99
2018-09-14T03:54:41.408Z,99.99
2018-09-14T03:55:41.404Z,99.99
2018-09-14T03:56:41.400Z,99.99
2018-09-14T03:57:41.396Z,99.99
2018-09-14T03:58:41.390Z,99.99
2018-09-14T03:59:41.384Z,99.99
2018-09-14T04:00:41.381Z,99.99
2018-09-14T04:01:41.377Z,99.99
2018-09-14T04:02:41.371Z,99.99
2018-09-14T04:03:41.369Z,99.99
2018-09-14T04:04:41.362Z,99.99
2018-09-14T04:05:41.360Z,99.99
2018-09-14T04:06:41.354Z,99.99
2018-09-14T04:07:41.409Z,99.99
2018-09-14T04:08:41.344Z,99.99
2018-09-14T04:09:41.341Z,99.99
2018-09-14T04:10:41.336Z,99.99
2018-09-14T04:11:41.332Z,99.99
2018-09-14T04:12:41.328Z,99.99
2018-09-14T04:13:41.322Z,99.99
2018-09-14T04:14:41.315Z,99.99
2018-09-14T04:15:41.312Z,99.99
2018-09-14T04:16:41.307Z,99.99
2018-09-14T04:17:41.303Z,99.99
2018-09-14T04:18:41.299Z,99.99
2018-09-14T04:19:41.295Z,99.99
2018-09-14T04:20:41.293Z,99.99
2018-09-14T04:21:41.284Z,99.99
2018-09-14T04:22:41.281Z,99.99
2018-09-14T04:23:41.358Z,99.99
2018-09-14T04:24:41.273Z,99.99
2018-09-14T04:25:41.266Z,99.99
2018-09-14T04:26:41.261Z,99.99
2018-09-14T04:27:41.259Z,99.99
2018-09-14T04:28:41.251Z,99.99
2018-09-14T04:29:41.248Z,99.99
2018-09-14T04:30:41.242Z,99.99
2018-09-14T04:31:41.237Z,99.99
2018-09-14T04:32:41.232Z,99.99
2018-09-14T04:33:41.233Z,99.99
2018-09-14T04:34:41.225Z,99.99
2018-09-14T04:35:41.219Z,99.99
2018-09-14T04:36:41.214Z,99.99
2018-09-14T04:37:41.210Z,99.99
2018-09-14T04:38:41.248Z,99.99
2018-09-14T04:39:41.199Z,99.99
2018-09-14T04:40:41.195Z,99.99
2018-09-14T04:41:41.191Z,99.99
2018-09-14T04:42:41.184Z,99.99
2018-09-14T04:43:41.183Z,99.99
2018-09-14T04:44:41.177Z,99.99
2018-09-14T04:45:41.171Z,99.99
2018-09-14T04:46:41.167Z,99.99
2018-09-14T04:47:41.160Z,99.99
2018-09-14T04:48:41.157Z,99.99
2018-09-14T04:49:41.155Z,99.99
2018-09-14T04:50:41.147Z,99.99
2018-09-14T04:51:41.196Z,99.99
2018-09-14T04:52:41.136Z,99.99
2018-09-14T04:53:41.132Z,99.99
2018-09-14T04:54:41.126Z,99.99
2018-09-14T04:55:41.121Z,99.99
2018-09-14T04:56:41.117Z,99.99
2018-09-14T04:57:41.111Z,99.99
2018-09-14T04:58:41.106Z,99.99
2018-09-14T04:59:41.101Z,99.99
2018-09-14T05:00:41.098Z,99.99
2018-09-14T05:01:41.094Z,99.99
2018-09-14T05:02:41.087Z,99.99
2018-09-14T05:03:41.082Z,99.99
2018-09-14T05:04:41.077Z,99.99
2018-09-14T05:05:41.073Z,99.99
2018-09-14T05:06:41.067Z,99.99
2018-09-14T05:07:41.073Z,99.99
2018-09-14T05:08:41.056Z,99.99
2018-09-14T05:09:41.052Z,99.99
2018-09-14T05:10:41.049Z,99.99
2018-09-14T05:11:41.043Z,99.99
2018-09-14T05:12:41.041Z,99.99
2018-09-14T05:13:41.032Z,99.99
2018-09-14T05:14:41.027Z,99.99
2018-09-14T05:15:41.021Z,99.99
2018-09-14T05:16:41.016Z,99.99
2018-09-14T05:17:41.013Z,99.99
2018-09-14T05:18:41.007Z,99.99
2018-09-14T05:19:41.002Z,99.99
2018-09-14T05:20:40.997Z,99.99
2018-09-14T05:21:40.993Z,99.99
2018-09-14T05:22:40.987Z,99.99
2018-09-14T05:23:40.982Z,99.99
2018-09-14T05:24:40.978Z,99.99
2018-09-14T05:25:40.973Z,99.99
2018-09-14T05:26:40.967Z,99.99
2018-09-14T05:27:40.962Z,99.99
2018-09-14T05:28:40.958Z,99.99
2018-09-14T05:29:40.952Z,99.99
2018-09-14T05:30:40.947Z,99.99
2018-09-14T05:31:40.943Z,99.99
2018-09-14T05:32:40.938Z,99.99
2018-09-14T05:33:40.934Z,99.99
2018-09-14T05:34:40.928Z,99.99
2018-09-14T05:35:40.924Z,99.99
2018-09-14T05:36:40.919Z,99.99
2018-09-14T05:37:40.913Z,99.99
2018-09-14T05:38:40.907Z,99.99
2018-09-14T05:39:40.901Z,99.99
2018-09-14T05:40:40.898Z,99.99
2018-09-14T05:41:40.897Z,99.99
2018-09-14T05:42:40.888Z,99.99
2018-09-14T05:43:40.882Z,99.99
2018-09-14T05:44:40.877Z,99.99
2018-09-14T05:45:40.896Z,99.99
2018-09-14T05:46:40.867Z,99.99
2018-09-14T05:47:40.862Z,99.99
2018-09-14T05:48:40.857Z,99.99
2018-09-14T05:49:40.853Z,99.99
2018-09-14T05:50:40.847Z,99.99
2018-09-14T05:51:40.843Z,99.99
2018-09-14T05:52:40.841Z,99.99
2018-09-14T05:53:40.834Z,99.99
2018-09-14T05:54:40.828Z,99.99
2018-09-14T05:55:40.826Z,99.99
2018-09-14T05:56:40.818Z,99.99
2018-09-14T05:57:40.813Z,99.99
2018-09-14T05:58:40.807Z,99.99
2018-09-14T05:59:40.804Z,99.99
2018-09-14T06:00:40.799Z,99.99
2018-09-14T06:01:40.795Z,99.99
2018-09-14T06:02:40.789Z,99.99
2018-09-14T06:03:40.785Z,99.99
2018-09-14T06:04:40.780Z,99.99
2018-09-14T06:05:40.779Z,99.99
2018-09-14T06:06:40.904Z,99.99
2018-09-14T06:07:40.764Z,99.99
2018-09-14T06:08:40.764Z,99.99
2018-09-14T06:09:40.755Z,99.99
2018-09-14T06:10:40.750Z,99.99
2018-09-14T06:11:40.745Z,99.99
2018-09-14T06:12:40.742Z,99.99
2018-09-14T06:13:40.737Z,99.99
2018-09-14T06:14:40.731Z,99.99
2018-09-14T06:15:40.725Z,99.99
2018-09-14T06:16:40.720Z,99.99
2018-09-14T06:17:40.718Z,99.99
2018-09-14T06:18:40.716Z,99.99
2018-09-14T06:19:40.708Z,99.99
2018-09-14T06:20:40.703Z,99.99
2018-09-14T06:21:40.699Z,99.99
2018-09-14T06:22:40.770Z,99.99
2018-09-14T06:23:40.695Z,99.99
2018-09-14T06:24:40.689Z,99.99
2018-09-14T06:25:40.681Z,99.99
2018-09-14T06:26:40.677Z,99.99
2018-09-14T06:27:40.673Z,99.99
2018-09-14T06:28:40.668Z,99.99
2018-09-14T06:29:40.664Z,99.99
2018-09-14T06:30:40.658Z,99.99
2018-09-14T06:31:40.654Z,99.99
2018-09-14T06:32:40.652Z,99.99
2018-09-14T06:33:40.650Z,99.99
2018-09-14T06:34:40.643Z,99.99
2018-09-14T06:35:40.637Z,99.99
2018-09-14T06:36:40.634Z,99.99
2018-09-14T06:37:40.630Z,99.99
2018-09-14T06:38:40.625Z,99.99
2018-09-14T06:39:40.629Z,99.99
2018-09-14T06:40:40.617Z,99.99
2018-09-14T06:41:40.613Z,99.99
2018-09-14T06:42:40.608Z,99.99
2018-09-14T06:43:40.605Z,99.99
2018-09-14T06:44:40.600Z,99.99
2018-09-14T06:45:40.598Z,99.99
2018-09-14T06:46:40.591Z,99.99
2018-09-14T06:47:40.588Z,99.99
2018-09-14T06:48:40.586Z,99.99
2018-09-14T06:49:40.582Z,99.99
2018-09-14T06:50:40.576Z,99.99
2018-09-14T06:51:40.573Z,99.99
2018-09-14T06:52:40.570Z,99.99
2018-09-14T06:53:40.567Z,99.99
2018-09-14T06:54:40.563Z,99.99
2018-09-14T06:55:40.559Z,99.99
2018-09-14T06:56:40.554Z,99.99
2018-09-14T06:57:40.552Z,99.99
2018-09-14T06:58:40.547Z,99.99
2018-09-14T06:59:40.543Z,99.99
2018-09-14T07:00:40.543Z,99.99
2018-09-14T07:01:40.536Z,99.99
2018-09-14T07:02:40.534Z,99.99
2018-09-14T07:03:40.529Z,99.99
2018-09-14T07:04:40.526Z,99.57
2018-09-14T07:05:40.523Z,99.99
2018-09-14T07:06:40.518Z,99.99
2018-09-14T07:07:40.515Z,99.99
2018-09-14T07:08:40.512Z,98.90
2018-09-14T07:09:40.509Z,98.80
2018-09-14T07:10:40.505Z,98.61
2018-09-14T07:11:40.510Z,98.80
2018-09-14T07:12:40.503Z,98.61
2018-09-14T07:13:40.498Z,98.94
2018-09-14T07:14:40.493Z,97.37
2018-09-14T07:15:40.488Z,97.89
2018-09-14T07:16:40.487Z,97.32
2018-09-14T07:17:40.482Z,96.94
2018-09-14T07:18:40.482Z,95.41
2018-09-14T07:19:40.479Z,95.22
2018-09-14T07:20:40.473Z,95.12
2018-09-14T07:21:40.505Z,94.70
2018-09-14T07:22:40.468Z,94.02
2018-09-14T07:23:40.464Z,93.84
2018-09-14T07:24:40.603Z,92.88
2018-09-14T07:25:40.483Z,92.69
2018-09-14T07:26:40.458Z,92.69
2018-09-14T07:27:40.454Z,92.02
2018-09-14T07:28:40.533Z,91.49
2018-09-14T07:29:40.462Z,91.30
2018-09-14T07:30:40.454Z,90.92
2018-09-14T07:31:40.490Z,90.63
2018-09-14T07:32:40.441Z,91.20
2018-09-14T07:33:40.438Z,91.02
2018-09-14T07:34:40.435Z,91.97
2018-09-14T07:35:40.432Z,91.49
2018-09-14T07:36:40.431Z,91.59
2018-09-14T07:37:40.427Z,91.39
2018-09-14T07:38:40.425Z,91.59
2018-09-14T07:39:40.422Z,92.16
2018-09-14T07:40:40.421Z,91.88
2018-09-14T07:41:40.416Z,91.59
2018-09-14T07:42:40.415Z,91.49
2018-09-14T07:43:40.413Z,91.73
2018-09-14T07:44:40.409Z,90.96
2018-09-14T07:45:40.407Z,90.77
2018-09-14T07:46:40.405Z,91.35
2018-09-14T07:47:40.402Z,91.44
2018-09-14T07:48:40.400Z,91.25
2018-09-14T07:49:40.399Z,91.35
2018-09-14T07:50:40.396Z,91.53
2018-09-14T07:51:40.393Z,91.35
2018-09-14T07:52:40.393Z,90.87
2018-09-14T07:53:40.390Z,90.96
2018-09-14T07:54:40.387Z,90.82
2018-09-14T07:55:40.386Z,91.01
2018-09-14T07:56:40.383Z,90.30
2018-09-14T07:57:40.381Z,90.24
2018-09-14T07:58:40.378Z,90.15
2018-09-14T07:59:40.379Z,89.48
2018-09-14T08:00:40.376Z,89.38
2018-09-14T08:01:40.374Z,89.67
2018-09-14T08:02:40.375Z,89.00
2018-09-14T08:03:40.369Z,88.71
2018-09-14T08:04:40.368Z,88.81
2018-09-14T08:05:40.367Z,88.56
2018-09-14T08:06:40.365Z,88.37
2018-09-14T08:07:40.362Z,88.47
2018-09-14T08:08:40.360Z,88.47
2018-09-14T08:09:40.359Z,88.28
2018-09-14T08:10:40.358Z,87.51
2018-09-14T08:11:40.361Z,87.23
2018-09-14T08:12:40.354Z,87.51
2018-09-14T08:13:40.354Z,87.51
2018-09-14T08:14:40.350Z,87.41
2018-09-14T08:15:40.349Z,87.32
2018-09-14T08:16:40.348Z,87.80
2018-09-14T08:17:40.347Z,88.28
2018-09-14T08:18:40.344Z,87.32
2018-09-14T08:19:40.343Z,87.46
2018-09-14T08:20:40.346Z,86.31
2018-09-14T08:21:40.455Z,85.35
2018-09-14T08:22:40.341Z,86.31
2018-09-14T08:23:40.339Z,85.35
2018-09-14T08:24:40.338Z,85.35
2018-09-14T08:25:40.337Z,85.74
2018-09-14T08:26:40.368Z,86.02
2018-09-14T08:27:40.334Z,86.41
2018-09-14T08:28:40.333Z,85.54
2018-09-14T08:29:40.333Z,85.74
2018-09-14T08:30:40.331Z,84.88
2018-09-14T08:31:40.388Z,84.91
2018-09-14T08:32:40.331Z,85.11
2018-09-14T08:33:40.329Z,85.01
2018-09-14T08:34:40.332Z,84.63
2018-09-14T08:35:40.332Z,85.01
2018-09-14T08:36:40.327Z,84.19
2018-09-14T08:37:40.327Z,84.09
2018-09-14T08:38:40.326Z,84.28
2018-09-14T08:39:40.324Z,84.00
2018-09-14T08:40:40.327Z,83.61
2018-09-14T08:41:40.323Z,82.65
2018-09-14T08:42:40.323Z,82.56
2018-09-14T08:43:40.322Z,83.42
2018-09-14T08:44:40.323Z,82.79
2018-09-14T08:45:40.322Z,82.31
2018-09-14T08:46:40.321Z,81.20
2018-09-14T08:47:40.323Z,80.07
2018-09-14T08:48:40.324Z,77.46
2018-09-14T08:49:40.324Z,74.93
2018-09-14T08:50:40.327Z,72.99
2018-09-14T08:51:40.326Z,69.13
2018-09-14T08:52:40.330Z,67.30
2018-09-14T08:53:40.392Z,68.16
2018-09-14T08:54:40.336Z,68.32
2018-09-14T08:55:40.339Z,67.94
2018-09-14T08:56:40.348Z,67.65
2018-09-14T08:57:40.350Z,65.82
2018-09-14T08:58:40.353Z,65.05
2018-09-14T08:59:40.358Z,64.98
2018-09-14T09:00:40.423Z,65.98
2018-09-14T09:01:40.374Z,65.66
2018-09-14T09:02:40.381Z,63.85
2018-09-14T09:03:40.383Z,63.31
2018-09-14T09:04:40.389Z,65.30
2018-09-14T09:05:40.397Z,63.18
2018-09-14T09:06:40.405Z,61.76
2018-09-14T09:07:40.413Z,60.75
2018-09-14T09:08:40.421Z,59.59
2018-09-14T09:09:40.429Z,58.95
2018-09-14T09:10:40.439Z,60.76
2018-09-14T09:11:40.448Z,62.02
2018-09-14T09:12:40.457Z,62.70
2018-09-14T09:13:40.468Z,61.80
2018-09-14T09:14:40.477Z,62.21
2018-09-14T09:15:40.486Z,59.70
2018-09-14T09:16:40.498Z,59.22
2018-09-14T09:17:40.515Z,61.73
2018-09-14T09:18:40.516Z,60.31
2018-09-14T09:19:40.528Z,60.05
2018-09-14T09:20:40.573Z,59.89
2018-09-14T09:21:40.551Z,57.50
2018-09-14T09:22:40.561Z,56.36
2018-09-14T09:23:40.572Z,56.67
2018-09-14T09:24:40.584Z,58.57
2018-09-14T09:25:40.595Z,60.38
2018-09-14T09:26:40.606Z,60.18
2018-09-14T09:27:40.620Z,59.05
2018-09-14T09:28:40.633Z,55.57
2018-09-14T09:29:40.643Z,56.54
2018-09-14T09:30:40.655Z,55.19
2018-09-14T09:31:40.667Z,54.37
2018-09-14T09:32:40.678Z,53.59
2018-09-14T09:33:40.694Z,53.50
2018-09-14T09:34:40.703Z,54.27
2018-09-14T09:35:40.715Z,54.15
2018-09-14T09:36:40.728Z,55.41
2018-09-14T09:37:40.740Z,55.07
2018-09-14T09:38:40.752Z,53.02
2018-09-14T09:39:40.764Z,52.19
2018-09-14T09:40:40.777Z,52.36
2018-09-14T09:41:40.789Z,53.33
2018-09-14T09:42:40.802Z,53.30
2018-09-14T09:43:40.831Z,53.81
2018-09-14T09:44:40.828Z,53.61
2018-09-14T09:45:40.841Z,53.25
2018-09-14T09:46:40.853Z,52.80
2018-09-14T09:47:40.865Z,52.61
2018-09-14T09:48:40.879Z,52.44
2018-09-14T09:49:40.896Z,51.64
2018-09-14T09:50:40.938Z,52.09
2018-09-14T09:51:40.917Z,52.67
2018-09-14T09:52:40.931Z,52.14
2018-09-14T09:53:40.944Z,51.32
2018-09-14T09:54:40.957Z,52.36
2018-09-14T09:55:40.969Z,53.09
2018-09-14T09:56:41.013Z,52.82
2018-09-14T09:57:40.998Z,50.33
2018-09-14T09:58:41.009Z,48.20
2018-09-14T09:59:41.022Z,48.39
2018-09-14T10:00:41.035Z,48.71
2018-09-14T10:01:41.049Z,48.20
2018-09-14T10:02:41.060Z,48.52
2018-09-14T10:03:41.100Z,49.65
2018-09-14T10:04:41.087Z,49.37
2018-09-14T10:05:41.100Z,48.66
2018-09-14T10:06:41.117Z,50.16
2018-09-14T10:07:41.126Z,52.43
2018-09-14T10:08:41.141Z,55.01
2018-09-14T10:09:41.152Z,55.82
2018-09-14T10:10:41.167Z,56.40
2018-09-14T10:11:41.179Z,56.01
2018-09-14T10:12:41.190Z,56.14
2018-09-14T10:13:41.202Z,55.13
2018-09-14T10:14:41.213Z,52.84
2018-09-14T10:15:41.227Z,51.87
2018-09-14T10:16:41.239Z,51.03
2018-09-14T10:17:41.250Z,50.09
2018-09-14T10:18:41.259Z,50.07
2018-09-14T10:19:41.273Z,51.71
2018-09-14T10:20:41.300Z,50.76
2018-09-14T10:21:41.303Z,49.73
2018-09-14T10:22:41.306Z,50.13
2018-09-14T10:23:41.318Z,50.91
2018-09-14T10:24:41.331Z,51.68
2018-09-14T10:25:41.341Z,52.09
2018-09-14T10:26:41.390Z,50.67
2018-09-14T10:27:41.364Z,50.50
2018-09-14T10:28:41.374Z,50.14
2018-09-14T10:29:41.386Z,50.04
2018-09-14T10:30:41.398Z,50.12
2018-09-14T10:31:41.410Z,51.87
2018-09-14T10:32:41.421Z,52.81
2018-09-14T10:33:41.437Z,54.49
2018-09-14T10:34:41.443Z,52.61
2018-09-14T10:35:41.456Z,51.61
2018-09-14T10:36:41.466Z,52.09
2018-09-14T10:37:41.479Z,53.13
2018-09-14T10:38:41.487Z,53.85
2018-09-14T10:39:41.539Z,55.94
2018-09-14T10:40:41.559Z,57.07
2018-09-14T10:41:41.520Z,57.65
2018-09-14T10:42:41.558Z,57.87
2018-09-14T10:43:41.541Z,57.85
2018-09-14T10:44:41.550Z,58.69
2018-09-14T10:45:41.562Z,59.20
2018-09-14T10:46:41.571Z,58.72
2018-09-14T10:47:41.581Z,57.29
2018-09-14T10:48:41.599Z,55.85
2018-09-14T10:49:41.603Z,55.02
2018-09-14T10:50:41.608Z,55.70
2018-09-14T10:51:41.617Z,57.05
2018-09-14T10:52:41.626Z,57.24
2018-09-14T10:53:41.635Z,56.66
2018-09-14T10:54:41.667Z,56.85
2018-09-14T10:55:41.650Z,57.62
2018-09-14T10:56:41.659Z,56.92
2018-09-14T10:57:41.667Z,56.99
2018-09-14T10:58:41.674Z,57.09
2018-09-14T10:59:41.683Z,58.47
2018-09-14T11:00:41.727Z,60.10
2018-09-14T11:01:41.697Z,59.04
2018-09-14T11:02:41.704Z,60.00
2018-09-14T11:03:41.712Z,59.14
2018-09-14T11:04:41.719Z,58.92
2018-09-14T11:05:41.725Z,58.63
2018-09-14T11:06:41.832Z,57.76
2018-09-14T11:07:41.738Z,58.72
2018-09-14T11:08:41.744Z,58.63
2018-09-14T11:09:41.752Z,59.14
2018-09-14T11:10:41.755Z,58.27
2018-09-14T11:11:41.763Z,58.17
2018-09-14T11:12:41.812Z,58.65
2018-09-14T11:13:41.776Z,58.78
2018-09-14T11:14:41.781Z,57.98
2018-09-14T11:15:41.791Z,57.98
2018-09-14T11:16:41.792Z,58.75
2018-09-14T11:17:41.799Z,57.79
2018-09-14T11:18:41.864Z,57.98
2018-09-14T11:19:41.809Z,58.05
2018-09-14T11:20:41.844Z,58.92
2018-09-14T11:21:41.819Z,60.46
2018-09-14T11:22:41.825Z,59.88
2018-09-14T11:23:41.880Z,58.37
2018-09-14T11:24:41.924Z,57.79
2018-09-14T11:25:41.842Z,57.12
2018-09-14T11:26:41.847Z,57.24
2018-09-14T11:27:41.851Z,57.05
2018-09-14T11:28:41.856Z,56.95
2018-09-14T11:29:41.863Z,56.09
2018-09-14T11:30:41.866Z,56.37
2018-09-14T11:31:41.871Z,56.85
2018-09-14T11:32:41.875Z,56.57
2018-09-14T11:33:41.882Z,55.99
2018-09-14T11:34:41.884Z,55.89
2018-09-14T11:35:41.890Z,56.27
2018-09-14T11:36:41.895Z,57.14
2018-09-14T11:37:41.928Z,57.24
2018-09-14T11:38:41.919Z,56.09
2018-09-14T11:39:41.909Z,56.09
2018-09-14T11:40:41.914Z,56.92
2018-09-14T11:41:41.919Z,56.92
2018-09-14T11:42:41.924Z,57.60
2018-09-14T11:43:41.929Z,57.62
2018-09-14T11:44:41.933Z,56.54
2018-09-14T11:45:41.939Z,57.02
2018-09-14T11:46:41.942Z,57.62
2018-09-14T11:47:41.946Z,57.92
2018-09-14T11:48:41.953Z,58.01
2018-09-14T11:49:41.957Z,58.30
2018-09-14T11:50:41.959Z,58.01
2018-09-14T11:51:41.969Z,57.79
2018-09-14T11:52:41.970Z,57.76
2018-09-14T11:53:41.976Z,58.82
2018-09-14T11:54:41.978Z,59.59
2018-09-14T11:55:41.982Z,59.97
2018-09-14T11:56:41.989Z,59.78
2018-09-14T11:57:41.992Z,59.20
2018-09-14T11:58:41.994Z,59.01
2018-09-14T11:59:42.000Z,58.56
2018-09-14T12:00:42.005Z,58.17
2018-09-14T12:01:42.008Z,57.89
2018-09-14T12:02:42.011Z,59.62
2018-09-14T12:03:42.016Z,59.04
2018-09-14T12:04:42.023Z,58.40
2018-09-14T12:05:42.025Z,57.98
2018-09-14T12:06:42.028Z,58.17
2018-09-14T12:07:42.031Z,58.08
2018-09-14T12:08:42.037Z,58.49
2018-09-14T12:09:42.040Z,58.78
2018-09-14T12:10:42.043Z,58.37
2018-09-14T12:11:42.048Z,58.69
2018-09-14T12:12:42.051Z,58.08
2018-09-14T12:13:42.083Z,58.56
2018-09-14T12:14:42.059Z,59.43
2018-09-14T12:15:42.062Z,58.56
2018-09-14T12:16:42.068Z,59.04
2018-09-14T12:17:42.069Z,59.40
2018-09-14T12:18:42.074Z,60.27
2018-09-14T12:19:42.079Z,59.01
2018-09-14T12:20:42.088Z,58.24
2018-09-14T12:21:42.090Z,58.72
2018-09-14T12:22:42.090Z,59.78
2018-09-14T12:23:42.093Z,59.78
2018-09-14T12:24:42.097Z,60.17
2018-09-14T12:25:42.101Z,60.07
2018-09-14T12:26:42.106Z,60.27
2018-09-14T12:27:42.108Z,59.30
2018-09-14T12:28:42.112Z,59.20
2018-09-14T12:29:42.116Z,59.88
2018-09-14T12:30:42.118Z,60.07
2018-09-14T12:31:42.123Z,61.16
2018-09-14T12:32:42.126Z,58.95
2018-09-14T12:33:42.132Z,58.95
2018-09-14T12:34:42.133Z,58.88
2018-09-14T12:35:42.149Z,58.49
2018-09-14T12:36:42.140Z,57.60
2018-09-14T12:37:42.145Z,57.31
2018-09-14T12:38:42.147Z,57.21
2018-09-14T12:39:42.153Z,57.21
2018-09-14T12:40:42.155Z,57.69
2018-09-14T12:41:42.159Z,57.69
2018-09-14T12:42:42.161Z,57.21
2018-09-14T12:43:42.165Z,57.12
2018-09-14T12:44:42.168Z,56.82
2018-09-14T12:45:42.174Z,56.92
2018-09-14T12:46:42.176Z,57.79
2018-09-14T12:47:42.180Z,56.73
2018-09-14T12:48:42.244Z,57.12
2018-09-14T12:49:42.187Z,57.69
2018-09-14T12:50:42.189Z,55.96
2018-09-14T12:51:42.193Z,55.51
2018-09-14T12:52:42.196Z,55.48
2018-09-14T12:53:42.199Z,55.99